createdAt,value
2022-10-14T00:02:28.866Z,37.73
2022-10-14T00:05:31.998Z,32.60
2022-10-14T00:08:35.684Z,32.67
2022-10-14T00:11:39.301Z,35.67
2022-10-14T00:14:43.868Z,34.13
2022-10-14T00:17:46.970Z,35.37
2022-10-14T00:20:55.860Z,32.90
2022-10-14T00:23:59.527Z,33.83
2022-10-14T00:27:02.600Z,34.87
2022-10-14T00:30:08.179Z,33.73
2022-10-14T00:33:11.271Z,33.87
2022-10-14T00:36:16.026Z,34.60
2022-10-14T00:39:19.252Z,37.97
2022-10-14T00:42:22.635Z,39.80
2022-10-14T00:45:27.267Z,36.67
2022-10-14T00:48:30.411Z,32.87
2022-10-14T00:51:33.820Z,34.33
2022-10-14T00:54:39.804Z,46.77
2022-10-14T00:57:43.137Z,30.40
2022-10-14T01:00:47.641Z,31.10
2022-10-14T01:03:50.836Z,33.40
2022-10-14T01:07:06.725Z,33.23
2022-10-14T01:10:15.975Z,31.83
2022-10-14T01:13:27.835Z,33.30
2022-10-14T01:16:45.970Z,36.60
2022-10-14T01:20:06.550Z,32.90
2022-10-14T01:23:36.813Z,29.97
2022-10-14T01:26:59.298Z,30.07
2022-10-14T01:30:13.449Z,32.53
2022-10-14T01:33:21.496Z,33.23
2022-10-14T01:36:31.512Z,33.50
2022-10-14T01:39:40.739Z,36.20
2022-10-14T01:42:45.572Z,33.07
2022-10-14T01:45:51.543Z,34.17
2022-10-14T01:48:59.306Z,34.93
2022-10-14T01:52:07.026Z,32.80
2022-10-14T01:55:15.011Z,33.73
2022-10-14T01:58:21.097Z,32.27
2022-10-14T02:01:26.027Z,35.77
2022-10-14T02:04:29.220Z,32.60
2022-10-14T02:07:39.245Z,30.73
2022-10-14T02:11:02.605Z,33.87
2022-10-14T02:14:12.979Z,33.40
2022-10-14T02:17:22.319Z,34.57
2022-10-14T02:20:30.300Z,33.33
2022-10-14T02:23:39.121Z,31.70
2022-10-14T02:26:43.343Z,30.67
2022-10-14T02:29:48.396Z,36.40
2022-10-14T02:32:54.160Z,33.60
2022-10-14T02:35:58.083Z,32.53
2022-10-14T02:39:02.607Z,37.63
2022-10-14T02:42:06.472Z,34.00
2022-10-14T02:45:11.973Z,31.83
2022-10-14T02:48:16.491Z,32.33
2022-10-14T02:51:19.590Z,30.03
2022-10-14T02:54:22.723Z,35.37
2022-10-14T02:57:25.930Z,30.23
2022-10-14T03:00:29.049Z,34.23
2022-10-14T03:03:33.533Z,35.53
2022-10-14T03:06:36.610Z,32.77
2022-10-14T03:09:39.682Z,35.03
2022-10-14T03:12:42.768Z,35.50
2022-10-14T03:15:45.838Z,34.17
2022-10-14T03:18:50.332Z,44.27
2022-10-14T03:21:53.411Z,31.60
2022-10-14T03:24:56.515Z,30.43
2022-10-14T03:27:59.644Z,32.97
2022-10-14T03:31:02.744Z,83.57
2022-10-14T03:34:07.364Z,60.03
2022-10-14T03:37:10.525Z,41.80
2022-10-14T03:40:14.225Z,36.93
2022-10-14T03:43:17.324Z,34.10
2022-10-14T03:46:20.472Z,29.77
2022-10-14T03:49:25.037Z,29.77
2022-10-14T03:52:28.170Z,32.57
2022-10-14T03:55:31.570Z,31.67
2022-10-14T03:58:34.648Z,32.03
2022-10-14T04:01:37.883Z,29.53
2022-10-14T04:04:42.383Z,34.20
2022-10-14T04:07:45.464Z,31.23
2022-10-14T04:10:53.885Z,31.43
2022-10-14T04:13:59.424Z,30.40
2022-10-14T04:17:02.503Z,32.50
2022-10-14T04:20:07.953Z,33.17
2022-10-14T04:23:11.326Z,37.20
2022-10-14T04:26:14.486Z,32.80
2022-10-14T04:29:17.567Z,32.43
2022-10-14T04:32:21.035Z,33.77
2022-10-14T04:35:25.758Z,36.33
2022-10-14T04:38:29.543Z,28.97
2022-10-14T04:41:32.706Z,30.50
2022-10-14T04:44:35.872Z,31.43
2022-10-14T04:47:38.995Z,31.20
2022-10-14T04:50:43.573Z,34.93
2022-10-14T04:53:46.676Z,30.67
2022-10-14T04:56:49.770Z,32.70
2022-10-14T04:59:52.862Z,33.23
2022-10-14T05:02:56.005Z,32.77
2022-10-14T05:06:00.720Z,30.90
2022-10-14T05:09:03.900Z,36.07
2022-10-14T05:12:07.471Z,33.10
2022-10-14T05:15:11.081Z,31.27
2022-10-14T05:18:14.375Z,34.77
2022-10-14T05:21:18.853Z,31.30
2022-10-14T05:24:21.956Z,34.90
2022-10-14T05:27:25.084Z,32.83
2022-10-14T05:30:33.643Z,32.03
2022-10-14T05:33:37.781Z,34.20
2022-10-14T05:36:42.268Z,35.53
2022-10-14T05:39:45.412Z,31.00
2022-10-14T05:42:48.590Z,34.53
2022-10-14T05:45:51.795Z,31.30
2022-10-14T05:48:54.891Z,30.77
2022-10-14T05:51:59.349Z,30.80
2022-10-14T05:55:02.657Z,30.73
2022-10-14T05:58:05.843Z,31.20
2022-10-14T06:01:11.653Z,37.20
2022-10-14T06:04:19.012Z,35.00
2022-10-14T06:07:23.469Z,29.93
2022-10-14T06:10:27.409Z,31.47
2022-10-14T06:13:30.578Z,32.73
2022-10-14T06:16:33.774Z,33.40
2022-10-14T06:19:37.342Z,30.87
2022-10-14T06:22:41.850Z,32.07
2022-10-14T06:25:44.962Z,30.37
2022-10-14T06:28:48.256Z,33.20
2022-10-14T06:31:51.494Z,31.90
2022-10-14T06:34:54.605Z,28.40
2022-10-14T06:37:59.430Z,29.17
2022-10-14T06:41:02.577Z,26.23
2022-10-14T06:44:05.757Z,23.97
2022-10-14T06:47:09.308Z,23.87
2022-10-14T06:50:12.425Z,24.73
2022-10-14T06:53:17.047Z,23.37
2022-10-14T06:56:20.187Z,27.10
2022-10-14T06:59:23.447Z,24.73
2022-10-14T07:02:26.753Z,26.97
2022-10-14T07:05:29.855Z,23.93
2022-10-14T07:08:34.370Z,25.83
2022-10-14T07:11:37.514Z,24.93
2022-10-14T07:14:40.618Z,23.47
2022-10-14T07:17:43.710Z,25.97
2022-10-14T07:20:47.024Z,25.93
2022-10-14T07:23:51.591Z,26.17
2022-10-14T07:26:55.193Z,25.07
2022-10-14T07:29:58.398Z,24.20
2022-10-14T07:33:01.699Z,29.10
2022-10-14T07:36:06.601Z,23.23
2022-10-14T07:39:11.156Z,25.67
2022-10-14T07:42:14.269Z,25.80
2022-10-14T07:45:18.693Z,27.43
2022-10-14T07:48:27.467Z,26.10
2022-10-14T07:51:42.482Z,25.53
2022-10-14T07:54:47.561Z,29.87
2022-10-14T07:57:50.647Z,26.77
2022-10-14T08:00:54.231Z,22.27
2022-10-14T08:03:57.598Z,23.70
2022-10-14T08:07:01.366Z,21.80
2022-10-14T08:10:06.676Z,22.00
2022-10-14T08:13:09.974Z,22.87
2022-10-14T08:16:16.411Z,24.00
2022-10-14T08:19:19.565Z,23.23
2022-10-14T08:22:22.970Z,23.60
2022-10-14T08:25:28.077Z,24.77
2022-10-14T08:28:31.304Z,24.87
2022-10-14T08:31:35.044Z,24.87
2022-10-14T08:34:38.152Z,24.23
2022-10-14T08:37:41.536Z,23.42
2022-10-14T08:41:03.648Z,25.13
2022-10-14T08:44:17.783Z,24.88
2022-10-14T08:47:26.792Z,25.35
2022-10-14T08:50:38.399Z,26.17
2022-10-14T08:53:46.209Z,24.95
2022-10-14T08:56:51.126Z,23.77
2022-10-14T08:59:54.848Z,26.35
2022-10-14T09:02:59.698Z,25.38
2022-10-14T09:06:06.270Z,23.92
2022-10-14T09:09:16.168Z,25.23
2022-10-14T09:12:24.045Z,25.10
2022-10-14T09:15:33.674Z,25.25
2022-10-14T09:18:41.688Z,25.15
2022-10-14T09:21:52.745Z,25.02
2022-10-14T09:24:56.589Z,23.90
2022-10-14T09:28:01.100Z,23.50
2022-10-14T09:31:05.017Z,23.70
2022-10-14T09:34:10.238Z,23.70
2022-10-14T09:37:29.227Z,23.85
2022-10-14T09:40:35.203Z,24.48
2022-10-14T09:43:39.875Z,22.88
2022-10-14T09:46:43.543Z,25.17
2022-10-14T09:49:49.448Z,24.02
2022-10-14T09:53:01.513Z,25.33
2022-10-14T09:56:07.885Z,25.50
2022-10-14T09:59:19.187Z,24.25
2022-10-14T10:02:25.722Z,27.08
2022-10-14T10:05:30.534Z,25.00
2022-10-14T10:08:34.579Z,24.33
2022-10-14T10:11:39.199Z,25.85
2022-10-14T10:14:56.443Z,25.83
2022-10-14T10:17:59.600Z,24.15
2022-10-14T10:21:07.003Z,24.70
2022-10-14T10:24:24.894Z,25.48
2022-10-14T10:27:35.617Z,24.77
2022-10-14T10:30:44.570Z,26.20
2022-10-14T10:33:55.203Z,27.70
2022-10-14T10:37:05.574Z,26.27
2022-10-14T10:40:25.840Z,27.90
2022-10-14T10:43:53.651Z,25.30
2022-10-14T10:47:16.189Z,27.80
2022-10-14T10:50:30.029Z,25.15
2022-10-14T10:53:57.242Z,23.70
2022-10-14T10:57:05.162Z,28.30
2022-10-14T11:00:13.537Z,26.75
2022-10-14T11:03:31.261Z,30.80
2022-10-14T11:06:57.739Z,27.55
2022-10-14T11:10:25.632Z,27.08
2022-10-14T11:13:38.445Z,31.60
2022-10-14T11:16:50.186Z,32.38
2022-10-14T11:20:05.443Z,30.30
2022-10-14T11:23:28.549Z,30.43
2022-10-14T11:27:03.035Z,33.10
2022-10-14T11:30:18.438Z,31.70
2022-10-14T11:33:39.858Z,31.30
2022-10-14T11:36:56.114Z,31.33
2022-10-14T11:40:02.063Z,32.03
2022-10-14T11:43:20.180Z,29.23
2022-10-14T11:46:26.938Z,31.75
2022-10-14T11:49:34.270Z,32.03
2022-10-14T11:52:44.489Z,32.67
2022-10-14T11:55:53.630Z,32.78
2022-10-14T11:59:00.314Z,34.10
2022-10-14T12:02:13.135Z,32.75
2022-10-14T12:05:22.512Z,32.22
2022-10-14T12:08:35.667Z,31.73
2022-10-14T12:11:45.248Z,32.13
2022-10-14T12:14:52.682Z,31.70
2022-10-14T12:17:58.655Z,30.75
2022-10-14T12:21:19.333Z,32.30
2022-10-14T12:24:27.678Z,32.60
2022-10-14T12:27:32.122Z,31.67
2022-10-14T12:30:38.201Z,32.47
2022-10-14T12:34:17.534Z,30.73
2022-10-14T12:37:50.638Z,33.92
2022-10-14T12:40:55.265Z,35.05
2022-10-14T12:44:04.209Z,33.88
2022-10-14T12:47:16.432Z,32.60
2022-10-14T12:50:30.472Z,33.17
2022-10-14T12:53:35.801Z,36.22
2022-10-14T12:56:44.663Z,37.47
2022-10-14T12:59:52.943Z,36.70
2022-10-14T13:03:00.082Z,38.25
2022-10-14T13:06:35.573Z,38.53
2022-10-14T13:09:38.910Z,41.50
2022-10-14T13:12:45.017Z,38.00
2022-10-14T13:15:52.513Z,35.15
2022-10-14T13:18:58.015Z,33.58
2022-10-14T13:22:01.634Z,34.85
2022-10-14T13:25:12.242Z,36.10
2022-10-14T13:28:26.735Z,36.17
2022-10-14T13:31:37.962Z,37.97
2022-10-14T13:34:50.811Z,40.63
2022-10-14T13:37:59.948Z,41.28
2022-10-14T13:41:04.776Z,43.83
2022-10-14T13:44:13.352Z,43.27
2022-10-14T13:47:21.396Z,41.13
2022-10-14T13:50:28.976Z,44.60
2022-10-14T13:53:32.112Z,41.73
2022-10-14T13:56:35.341Z,43.57
2022-10-14T13:59:46.863Z,44.70
2022-10-14T14:03:17.135Z,43.27
2022-10-14T14:06:22.730Z,37.80
2022-10-14T14:09:28.439Z,40.13
2022-10-14T14:12:31.800Z,38.07
2022-10-14T14:15:37.769Z,39.07
2022-10-14T14:19:03.843Z,36.73
2022-10-14T14:22:18.852Z,38.30
2022-10-14T14:25:34.926Z,38.50
2022-10-14T14:28:39.000Z,38.20
2022-10-14T14:32:05.671Z,38.50
2022-10-14T14:35:16.066Z,38.00
2022-10-14T14:38:29.763Z,38.37
2022-10-14T14:41:34.375Z,37.97
2022-10-14T14:44:37.870Z,36.90
2022-10-14T14:47:42.831Z,39.37
2022-10-14T14:50:46.773Z,39.10
2022-10-14T14:53:53.882Z,39.87
2022-10-14T14:57:03.424Z,41.93
2022-10-14T15:00:08.536Z,39.73
2022-10-14T15:03:13.282Z,39.03
2022-10-14T15:06:18.021Z,40.57
2022-10-14T15:09:27.788Z,39.57
2022-10-14T15:12:34.227Z,38.60
2022-10-14T15:15:38.234Z,40.00
2022-10-14T15:18:43.651Z,41.70
2022-10-14T15:21:47.932Z,40.83
2022-10-14T15:25:06.666Z,41.73
2022-10-14T15:28:30.638Z,37.00
2022-10-14T15:31:34.389Z,38.17
2022-10-14T15:34:38.931Z,38.87
2022-10-14T15:37:42.450Z,39.00
2022-10-14T15:40:46.205Z,39.23
2022-10-14T15:43:49.370Z,40.93
2022-10-14T15:47:09.750Z,38.17
2022-10-14T15:50:18.688Z,41.53
2022-10-14T15:53:21.782Z,43.67
2022-10-14T15:56:25.206Z,38.83
2022-10-14T15:59:28.708Z,42.20
2022-10-14T16:02:35.200Z,46.53
2022-10-14T16:05:40.013Z,43.10
2022-10-14T16:08:43.289Z,41.93
2022-10-14T16:11:46.490Z,41.63
2022-10-14T16:14:49.614Z,43.10
2022-10-14T16:17:53.250Z,44.07
2022-10-14T16:20:57.829Z,43.40
2022-10-14T16:24:02.357Z,47.87
2022-10-14T16:27:05.573Z,45.33
2022-10-14T16:30:11.430Z,47.73
2022-10-14T16:33:15.338Z,46.43
2022-10-14T16:36:20.350Z,46.60
2022-10-14T16:39:23.535Z,50.13
2022-10-14T16:42:26.741Z,47.67
2022-10-14T16:45:29.873Z,51.70
2022-10-14T16:48:34.892Z,54.30
2022-10-14T16:51:39.569Z,48.67
2022-10-14T16:54:42.999Z,48.67
2022-10-14T16:57:46.289Z,44.10
2022-10-14T17:00:49.738Z,46.27
2022-10-14T17:03:52.869Z,48.40
2022-10-14T17:06:57.917Z,45.80
2022-10-14T17:10:01.359Z,48.60
2022-10-14T17:13:04.979Z,45.07
2022-10-14T17:16:08.688Z,52.53
2022-10-14T17:19:12.308Z,49.57
2022-10-14T17:22:20.041Z,46.53
2022-10-14T17:25:23.393Z,48.47
2022-10-14T17:28:26.842Z,50.10
2022-10-14T17:31:30.521Z,47.97
2022-10-14T17:34:34.027Z,48.67
2022-10-14T17:37:38.547Z,49.90
2022-10-14T17:40:42.159Z,48.83
2022-10-14T17:43:49.467Z,48.80
2022-10-14T17:46:53.312Z,48.60
2022-10-14T17:49:57.329Z,46.33
2022-10-14T17:53:05.007Z,50.13
2022-10-14T17:56:12.751Z,49.40
2022-10-14T17:59:16.736Z,50.03
2022-10-14T18:02:20.834Z,52.70
2022-10-14T18:05:24.793Z,48.40
2022-10-14T18:08:30.634Z,56.27
2022-10-14T18:12:03.504Z,49.40
2022-10-14T18:15:03.273Z,50.97
2022-10-14T18:18:08.297Z,49.67
2022-10-14T18:21:13.147Z,50.60
2022-10-14T18:24:18.893Z,50.57
2022-10-14T18:27:22.738Z,46.90
2022-10-14T18:30:27.246Z,49.67
2022-10-14T18:33:36.112Z,46.13
2022-10-14T18:36:40.228Z,52.67
2022-10-14T18:39:46.597Z,46.63
2022-10-14T18:42:57.626Z,48.40
2022-10-14T18:46:07.061Z,51.90
2022-10-14T18:49:14.504Z,50.10
2022-10-14T18:52:21.191Z,50.67
2022-10-14T18:55:27.103Z,59.87
2022-10-14T18:58:31.422Z,52.77
2022-10-14T19:01:37.085Z,50.20
2022-10-14T19:04:41.921Z,49.07
2022-10-14T19:07:46.471Z,47.93
2022-10-14T19:10:52.094Z,54.60
2022-10-14T19:13:58.195Z,49.10
2022-10-14T19:17:02.768Z,51.07
2022-10-14T19:20:08.940Z,48.00
2022-10-14T19:23:13.298Z,51.93
2022-10-14T19:26:23.373Z,48.90
2022-10-14T19:29:27.411Z,46.10
2022-10-14T19:32:31.932Z,46.90
2022-10-14T19:35:36.091Z,48.30
2022-10-14T19:38:41.098Z,48.43
2022-10-14T19:41:47.659Z,48.40
2022-10-14T19:44:53.068Z,50.53
2022-10-14T19:47:56.874Z,48.80
2022-10-14T19:51:06.154Z,47.83
2022-10-14T19:54:12.560Z,56.73
2022-10-14T19:57:17.252Z,49.00
2022-10-14T20:00:20.538Z,52.53
2022-10-14T20:03:24.364Z,49.27
2022-10-14T20:06:29.753Z,49.83
2022-10-14T20:09:33.263Z,52.63
2022-10-14T20:12:38.323Z,50.67
2022-10-14T20:15:41.820Z,50.27
2022-10-14T20:18:45.328Z,50.87
2022-10-14T20:21:48.675Z,50.07
2022-10-14T20:24:52.374Z,47.37
2022-10-14T20:27:57.249Z,53.83
2022-10-14T20:31:00.696Z,48.80
2022-10-14T20:34:08.684Z,51.80
2022-10-14T20:37:14.718Z,47.50
2022-10-14T20:40:18.286Z,51.87
2022-10-14T20:43:22.860Z,59.13
2022-10-14T20:46:26.103Z,50.23
2022-10-14T20:49:29.541Z,53.43
2022-10-14T20:52:32.940Z,103.17
2022-10-14T20:55:36.064Z,145.87
2022-10-14T20:58:41.305Z,71.97
2022-10-14T21:01:44.561Z,65.20
2022-10-14T21:04:49.093Z,71.63
2022-10-14T21:07:53.245Z,61.77
2022-10-14T21:10:59.341Z,51.60
2022-10-14T21:14:04.260Z,51.50
2022-10-14T21:17:07.418Z,46.60
2022-10-14T21:20:11.311Z,53.30
2022-10-14T21:23:14.490Z,49.23
2022-10-14T21:26:18.085Z,61.60
2022-10-14T21:29:23.114Z,61.37
2022-10-14T21:32:26.897Z,59.83
2022-10-14T21:35:30.725Z,60.83
2022-10-14T21:38:34.076Z,54.00
2022-10-14T21:41:37.362Z,49.90
2022-10-14T21:44:41.993Z,46.17
2022-10-14T21:47:45.180Z,50.50
2022-10-14T21:50:48.424Z,50.97
2022-10-14T21:53:51.631Z,52.50
2022-10-14T21:56:57.682Z,48.63
2022-10-14T22:00:02.287Z,49.10
2022-10-14T22:03:05.696Z,53.07
2022-10-14T22:06:10.682Z,50.83
2022-10-14T22:09:13.947Z,51.43
2022-10-14T22:12:17.102Z,53.83
2022-10-14T22:15:21.615Z,50.13
2022-10-14T22:18:25.082Z,53.63
2022-10-14T22:21:30.270Z,50.27
2022-10-14T22:24:33.390Z,46.30
2022-10-14T22:27:36.848Z,50.00
2022-10-14T22:30:41.353Z,52.03
2022-10-14T22:33:45.002Z,51.87
2022-10-14T22:36:48.239Z,46.97
2022-10-14T22:39:51.343Z,48.53
2022-10-14T22:42:55.223Z,49.53
2022-10-14T22:46:04.142Z,51.93
2022-10-14T22:49:07.941Z,47.07
2022-10-14T22:52:11.049Z,49.47
2022-10-14T22:55:14.334Z,49.13
2022-10-14T22:58:17.669Z,52.93
2022-10-14T23:01:23.029Z,50.97
2022-10-14T23:04:26.182Z,49.10
2022-10-14T23:07:30.013Z,48.20
2022-10-14T23:10:33.438Z,46.53
2022-10-14T23:13:36.724Z,45.00
2022-10-14T23:16:41.389Z,53.43
2022-10-14T23:19:44.648Z,50.97
2022-10-14T23:22:47.954Z,46.13
2022-10-14T23:25:51.206Z,46.97
2022-10-14T23:28:57.582Z,47.43
2022-10-14T23:32:03.037Z,44.33
2022-10-14T23:35:07.132Z,54.17
2022-10-14T23:38:12.709Z,44.67
2022-10-14T23:41:16.459Z,45.47
2022-10-14T23:44:19.639Z,45.50
2022-10-14T23:47:24.656Z,51.50
2022-10-14T23:50:28.313Z,51.03
2022-10-14T23:53:31.439Z,46.40
2022-10-14T23:56:34.658Z,49.50
2022-10-14T23:59:37.894Z,44.40
